createdAt,value
2023-03-18T00:01:58.897Z,101260
2023-03-18T00:03:58.622Z,101270
2023-03-18T00:06:08.307Z,101270
2023-03-18T00:07:58.321Z,101280
2023-03-18T00:09:57.924Z,101280
2023-03-18T00:11:57.802Z,101280
2023-03-18T00:13:57.949Z,101280
2023-03-18T00:15:57.377Z,101280
2023-03-18T00:17:57.220Z,101280
2023-03-18T00:19:56.787Z,101280
2023-03-18T00:21:56.719Z,101280
2023-03-18T00:23:56.748Z,101280
2023-03-18T00:25:57.913Z,101280
2023-03-18T00:27:55.885Z,101280
2023-03-18T00:29:56.190Z,101290
2023-03-18T00:31:55.436Z,101290
2023-03-18T00:33:55.574Z,101290
2023-03-18T00:35:55.087Z,101290
2023-03-18T00:37:54.975Z,101300
2023-03-18T00:39:54.493Z,101310
2023-03-18T00:41:55.077Z,101310
2023-03-18T00:43:54.660Z,101310
2023-03-18T00:45:54.638Z,101310
2023-03-18T00:47:55.328Z,101310
2023-03-18T00:49:53.760Z,101310
2023-03-18T00:51:53.014Z,101310
2023-03-18T00:53:55.785Z,101310
2023-03-18T00:55:52.792Z,101310
2023-03-18T00:57:52.674Z,101310
2023-03-18T00:59:52.473Z,101310
2023-03-18T01:01:52.072Z,101310
2023-03-18T01:03:51.734Z,101310
2023-03-18T01:05:51.904Z,101320
2023-03-18T01:07:51.202Z,101320
2023-03-18T01:09:51.890Z,101330
2023-03-18T01:11:51.005Z,101330
2023-03-18T01:13:51.189Z,101330
2023-03-18T01:15:51.000Z,101330
2023-03-18T01:17:50.375Z,101330
2023-03-18T01:19:49.841Z,101330
2023-03-18T01:21:49.774Z,101330
2023-03-18T01:23:49.438Z,101330
2023-03-18T01:25:52.215Z,101330
2023-03-18T01:27:49.129Z,101330
2023-03-18T01:29:53.214Z,101330
2023-03-18T01:31:49.430Z,101340
2023-03-18T01:33:48.056Z,101340
2023-03-18T01:35:53.771Z,101350
2023-03-18T01:37:47.974Z,101360
2023-03-18T01:39:52.690Z,101360
2023-03-18T01:41:50.363Z,101360
2023-03-18T01:43:47.019Z,101360
2023-03-18T01:45:50.231Z,101360
2023-03-18T01:47:49.233Z,101360
2023-03-18T01:49:48.907Z,101360
2023-03-18T01:51:51.717Z,101360
2023-03-18T01:53:49.306Z,101360
2023-03-18T01:55:47.114Z,101370
2023-03-18T01:57:46.230Z,101370
2023-03-18T01:59:46.684Z,101370
2023-03-18T02:01:50.486Z,101380
2023-03-18T02:05:44.453Z,101380
2023-03-18T02:07:44.641Z,101380
2023-03-18T02:09:44.524Z,101380
2023-03-18T02:11:48.303Z,101380
2023-03-18T02:13:45.206Z,101380
2023-03-18T02:15:48.636Z,101380
2023-03-18T02:17:47.536Z,101390
2023-03-18T02:19:56.499Z,101390
2023-03-18T02:21:51.227Z,101390
2023-03-18T02:23:49.315Z,101390
2023-03-18T02:25:49.338Z,101390
2023-03-18T02:27:44.931Z,101390
2023-03-18T02:29:45.921Z,101390
2023-03-18T02:31:42.072Z,101400
2023-03-18T02:33:41.867Z,101400
2023-03-18T02:35:43.972Z,101400
2023-03-18T02:37:40.472Z,101400
2023-03-18T02:39:39.859Z,101400
2023-03-18T02:41:39.700Z,101410
2023-03-18T02:43:40.112Z,101410
2023-03-18T02:45:47.398Z,101410
2023-03-18T02:47:42.108Z,101410
2023-03-18T02:49:38.675Z,101410
2023-03-18T02:51:39.466Z,101420
2023-03-18T02:53:38.601Z,101420
2023-03-18T02:55:37.985Z,101420
2023-03-18T02:57:37.506Z,101420
2023-03-18T02:59:37.362Z,101420
2023-03-18T03:01:38.405Z,101420
2023-03-18T03:03:37.555Z,101420
2023-03-18T03:05:36.510Z,101420
2023-03-18T03:07:36.471Z,101420
2023-03-18T03:09:35.869Z,101420
2023-03-18T03:11:41.877Z,101420
2023-03-18T03:13:36.047Z,101430
2023-03-18T03:15:35.656Z,101430
2023-03-18T03:17:34.717Z,101430
2023-03-18T03:19:35.355Z,101440
2023-03-18T03:21:34.910Z,101440
2023-03-18T03:23:34.677Z,101440
2023-03-18T03:25:34.022Z,101440
2023-03-18T03:27:34.775Z,101440
2023-03-18T03:29:33.039Z,101440
2023-03-18T03:31:33.267Z,101440
2023-03-18T03:33:32.713Z,101440
2023-03-18T03:35:32.699Z,101440
2023-03-18T03:37:32.029Z,101440
2023-03-18T03:39:31.746Z,101440
2023-03-18T03:41:31.873Z,101440
2023-03-18T03:43:31.956Z,101440
2023-03-18T03:45:31.954Z,101450
2023-03-18T03:47:31.095Z,101450
2023-03-18T03:49:31.690Z,101460
2023-03-18T03:51:30.178Z,101460
2023-03-18T03:53:29.880Z,101460
2023-03-18T03:55:30.137Z,101460
2023-03-18T03:57:29.522Z,101460
2023-03-18T03:59:43.921Z,101460
2023-03-18T04:01:29.748Z,101460
2023-03-18T04:03:28.626Z,101460
2023-03-18T04:05:31.632Z,101460
2023-03-18T04:07:28.110Z,101460
2023-03-18T04:09:28.182Z,101460
2023-03-18T04:11:27.465Z,101460
2023-03-18T04:13:27.699Z,101460
2023-03-18T04:15:27.075Z,101460
2023-03-18T04:17:26.799Z,101460
2023-03-18T04:19:27.710Z,101460
2023-03-18T04:21:28.658Z,101460
2023-03-18T04:23:26.288Z,101460
2023-03-18T04:25:26.734Z,101460
2023-03-18T04:27:26.355Z,101460
2023-03-18T04:29:25.911Z,101460
2023-03-18T04:31:25.600Z,101460
2023-03-18T04:33:25.390Z,101460
2023-03-18T04:35:25.212Z,101460
2023-03-18T04:37:27.720Z,101460
2023-03-18T04:39:24.908Z,101460
2023-03-18T04:41:25.680Z,101450
2023-03-18T04:43:24.555Z,101450
2023-03-18T04:45:24.695Z,101450
2023-03-18T04:47:24.829Z,101450
2023-03-18T04:49:23.708Z,101450
2023-03-18T04:51:24.042Z,101450
2023-03-18T04:53:23.376Z,101460
2023-03-18T04:55:23.732Z,101460
2023-03-18T04:57:25.481Z,101460
2023-03-18T04:59:23.998Z,101460
2023-03-18T05:01:22.586Z,101460
2023-03-18T05:03:23.186Z,101460
2023-03-18T05:05:23.016Z,101470
2023-03-18T05:07:29.251Z,101470
2023-03-18T05:09:21.724Z,101470
2023-03-18T05:11:21.600Z,101470
2023-03-18T05:13:21.287Z,101470
2023-03-18T05:15:26.242Z,101480
2023-03-18T05:17:27.665Z,101480
2023-03-18T05:19:26.680Z,101480
2023-03-18T05:21:20.681Z,101480
2023-03-18T05:23:24.645Z,101480
2023-03-18T05:25:20.730Z,101490
2023-03-18T05:27:27.641Z,101490
2023-03-18T05:29:28.328Z,101490
2023-03-18T05:31:20.085Z,101500
2023-03-18T05:33:25.088Z,101500
2023-03-18T05:35:22.073Z,101510
2023-03-18T05:37:23.033Z,101510
2023-03-18T05:39:18.627Z,101510
2023-03-18T05:41:18.389Z,101510
2023-03-18T05:43:23.220Z,101510
2023-03-18T05:45:23.416Z,101510
2023-03-18T05:47:26.882Z,101510
2023-03-18T05:49:31.508Z,101510
2023-03-18T05:51:19.025Z,101510
2023-03-18T05:53:18.175Z,101510
2023-03-18T05:55:17.773Z,101510
2023-03-18T05:57:16.926Z,101510
2023-03-18T05:59:20.169Z,101520
2023-03-18T06:01:16.834Z,101520
2023-03-18T06:03:16.569Z,101520
2023-03-18T06:05:17.512Z,101520
2023-03-18T06:07:16.210Z,101520
2023-03-18T06:09:17.529Z,101520
2023-03-18T06:11:15.711Z,101520
2023-03-18T06:13:16.102Z,101520
2023-03-18T06:15:15.591Z,101520
2023-03-18T06:17:16.309Z,101530
2023-03-18T06:19:15.119Z,101530
2023-03-18T06:21:15.290Z,101530
2023-03-18T06:23:14.845Z,101540
2023-03-18T06:25:16.816Z,101540
2023-03-18T06:27:16.022Z,101540
2023-03-18T06:29:14.327Z,101540
2023-03-18T06:31:14.643Z,101540
2023-03-18T06:33:14.512Z,101540
2023-03-18T06:35:14.489Z,101540
2023-03-18T06:37:13.992Z,101540
2023-03-18T06:39:14.834Z,101550
2023-03-18T06:41:20.572Z,101550
2023-03-18T06:43:15.812Z,101550
2023-03-18T06:45:20.331Z,101560
2023-03-18T06:47:17.151Z,101560
2023-03-18T06:49:17.155Z,101560
2023-03-18T06:51:14.123Z,101560
2023-03-18T06:53:13.177Z,101560
2023-03-18T06:55:17.149Z,101570
2023-03-18T06:57:12.768Z,101570
2023-03-18T06:59:12.678Z,101580
2023-03-18T07:01:14.789Z,101580
2023-03-18T07:03:12.048Z,101580
2023-03-18T07:05:13.449Z,101580
2023-03-18T07:07:13.005Z,101580
2023-03-18T07:09:11.849Z,101580
2023-03-18T07:11:13.331Z,101580
2023-03-18T07:13:12.910Z,101580
2023-03-18T07:15:12.507Z,101590
2023-03-18T07:17:13.098Z,101590
2023-03-18T07:19:11.503Z,101590
2023-03-18T07:21:11.150Z,101590
2023-03-18T07:23:11.000Z,101590
2023-03-18T07:25:11.074Z,101590
2023-03-18T07:27:10.991Z,101590
2023-03-18T07:29:11.785Z,101590
2023-03-18T07:31:10.642Z,101590
2023-03-18T07:33:11.525Z,101590
2023-03-18T07:35:10.334Z,101590
2023-03-18T07:37:10.356Z,101590
2023-03-18T07:39:10.531Z,101590
2023-03-18T07:41:10.067Z,101590
2023-03-18T07:43:10.231Z,101590
2023-03-18T07:45:10.547Z,101590
2023-03-18T07:47:09.836Z,101590
2023-03-18T07:49:09.687Z,101600
2023-03-18T07:51:09.689Z,101600
2023-03-18T07:53:09.501Z,101600
2023-03-18T07:55:11.233Z,101600
2023-03-18T07:57:09.554Z,101590
2023-03-18T07:59:09.359Z,101590
2023-03-18T08:01:09.229Z,101590
2023-03-18T08:03:10.845Z,101590
2023-03-18T08:05:10.584Z,101590
2023-03-18T08:07:09.254Z,101590
2023-03-18T08:09:08.865Z,101590
2023-03-18T08:11:08.788Z,101590
2023-03-18T08:13:08.697Z,101590
2023-03-18T08:15:09.747Z,101580
2023-03-18T08:17:08.948Z,101580
2023-03-18T08:19:08.515Z,101580
2023-03-18T08:21:08.517Z,101580
2023-03-18T08:23:08.481Z,101580
2023-03-18T08:25:09.446Z,101580
2023-03-18T08:27:08.755Z,101580
2023-03-18T08:29:08.023Z,101580
2023-03-18T08:31:08.040Z,101580
2023-03-18T08:33:08.485Z,101580
2023-03-18T08:35:08.792Z,101580
2023-03-18T08:37:08.066Z,101580
2023-03-18T08:39:07.729Z,101570
2023-03-18T08:41:08.080Z,101560
2023-03-18T08:43:08.431Z,101570
2023-03-18T08:45:08.898Z,101570
2023-03-18T08:47:07.429Z,101570
2023-03-18T08:49:07.381Z,101570
2023-03-18T08:51:07.270Z,101570
2023-03-18T08:53:07.314Z,101560
2023-03-18T08:55:08.374Z,101560
2023-03-18T08:57:07.001Z,101560
2023-03-18T08:59:06.795Z,101560
2023-03-18T09:01:07.299Z,101550
2023-03-18T09:03:07.139Z,101550
2023-03-18T09:05:07.146Z,101550
2023-03-18T09:07:06.535Z,101550
2023-03-18T09:09:07.165Z,101550
2023-03-18T09:11:06.655Z,101550
2023-03-18T09:13:06.344Z,101550
2023-03-18T09:15:08.058Z,101550
2023-03-18T09:17:06.113Z,101550
2023-03-18T09:19:06.389Z,101550
2023-03-18T09:21:06.458Z,101550
2023-03-18T09:23:06.138Z,101550
2023-03-18T09:25:08.521Z,101550
2023-03-18T09:27:05.866Z,101550
2023-03-18T09:29:05.629Z,101550
2023-03-18T09:31:05.717Z,101550
2023-03-18T09:33:05.921Z,101550
2023-03-18T09:35:06.578Z,101550
2023-03-18T09:37:05.360Z,101540
2023-03-18T09:39:05.254Z,101540
2023-03-18T09:41:16.883Z,101540
2023-03-18T09:43:17.839Z,101540
2023-03-18T09:45:18.896Z,101540
2023-03-18T09:47:21.542Z,101540
2023-03-18T09:49:27.568Z,101540
2023-03-18T09:51:15.033Z,101540
2023-03-18T09:53:15.092Z,101540
2023-03-18T09:55:12.068Z,101540
2023-03-18T09:57:10.713Z,101540
2023-03-18T09:59:15.422Z,101540
2023-03-18T10:01:07.566Z,101540
2023-03-18T10:03:09.952Z,101540
2023-03-18T10:05:09.307Z,101530
2023-03-18T10:07:12.161Z,101530
2023-03-18T10:09:13.933Z,101530
2023-03-18T10:11:10.699Z,101520
2023-03-18T10:13:12.339Z,101520
2023-03-18T10:15:14.817Z,101520
2023-03-18T10:17:14.089Z,101520
2023-03-18T10:19:03.510Z,101520
2023-03-18T10:21:17.239Z,101520
2023-03-18T10:23:16.563Z,101520
2023-03-18T10:25:11.886Z,101520
2023-03-18T10:27:13.636Z,101520
2023-03-18T10:29:13.502Z,101510
2023-03-18T10:31:17.447Z,101510
2023-03-18T10:33:12.765Z,101510
2023-03-18T10:35:16.346Z,101510
2023-03-18T10:37:10.054Z,101510
2023-03-18T10:39:03.386Z,101510
2023-03-18T10:41:14.535Z,101510
2023-03-18T10:43:03.624Z,101490
2023-03-18T10:45:13.218Z,101490
2023-03-18T10:47:10.268Z,101490
2023-03-18T10:49:11.739Z,101480
2023-03-18T10:51:10.556Z,101480
2023-03-18T10:53:12.954Z,101480
2023-03-18T10:55:02.361Z,101480
2023-03-18T10:57:02.190Z,101480
2023-03-18T10:59:09.987Z,101480
2023-03-18T11:01:02.061Z,101470
2023-03-18T11:03:05.088Z,101470
2023-03-18T11:05:15.392Z,101470
2023-03-18T11:07:05.560Z,101470
2023-03-18T11:09:05.998Z,101470
2023-03-18T11:11:15.918Z,101470
2023-03-18T11:13:02.361Z,101470
2023-03-18T11:15:09.707Z,101460
2023-03-18T11:17:03.691Z,101460
2023-03-18T11:19:23.165Z,101450
2023-03-18T11:21:01.674Z,101450
2023-03-18T11:23:05.403Z,101450
2023-03-18T11:25:11.561Z,101450
2023-03-18T11:27:02.479Z,101450
2023-03-18T11:29:10.616Z,101460
2023-03-18T11:31:05.346Z,101460
2023-03-18T11:33:05.245Z,101460
2023-03-18T11:35:03.556Z,101450
2023-03-18T11:37:03.663Z,101450
2023-03-18T11:39:03.804Z,101450
2023-03-18T11:41:06.516Z,101450
2023-03-18T11:43:12.830Z,101450
2023-03-18T11:45:02.165Z,101450
2023-03-18T11:47:06.474Z,101450
2023-03-18T11:49:01.273Z,101450
2023-03-18T11:51:12.818Z,101450
2023-03-18T11:53:09.997Z,101440
2023-03-18T11:55:13.039Z,101440
2023-03-18T11:57:08.448Z,101440
2023-03-18T11:59:14.125Z,101440
2023-03-18T12:01:12.119Z,101430
2023-03-18T12:03:30.334Z,101430
2023-03-18T12:05:18.838Z,101430
2023-03-18T12:07:16.123Z,101430
2023-03-18T12:09:06.175Z,101430
2023-03-18T12:11:08.874Z,101430
2023-03-18T12:13:21.108Z,101430
2023-03-18T12:15:08.742Z,101430
2023-03-18T12:17:12.591Z,101430
2023-03-18T12:19:16.891Z,101430
2023-03-18T12:21:08.936Z,101430
2023-03-18T12:23:04.473Z,101430
2023-03-18T12:25:22.253Z,101420
2023-03-18T12:27:07.351Z,101420
2023-03-18T12:29:25.122Z,101420
2023-03-18T12:31:17.533Z,101420
2023-03-18T12:33:07.023Z,101420
2023-03-18T12:35:23.586Z,101420
2023-03-18T12:37:18.614Z,101410
2023-03-18T12:39:20.760Z,101400
2023-03-18T12:41:09.296Z,101400
2023-03-18T12:43:17.918Z,101400
2023-03-18T12:45:02.021Z,101400
2023-03-18T12:47:04.071Z,101400
2023-03-18T12:49:09.520Z,101400
2023-03-18T12:51:06.582Z,101400
2023-03-18T12:53:02.480Z,101390
2023-03-18T12:55:03.851Z,101390
2023-03-18T12:57:03.999Z,101390
2023-03-18T12:59:06.929Z,101390
2023-03-18T13:01:04.964Z,101390
2023-03-18T13:03:04.506Z,101380
2023-03-18T13:05:02.796Z,101380
2023-03-18T13:07:06.304Z,101380
2023-03-18T13:09:06.709Z,101380
2023-03-18T13:11:10.515Z,101380
2023-03-18T13:13:02.761Z,101380
2023-03-18T13:15:04.099Z,101380
2023-03-18T13:17:00.241Z,101380
2023-03-18T13:18:59.818Z,101380
2023-03-18T13:21:00.286Z,101370
2023-03-18T13:23:11.601Z,101370
2023-03-18T13:25:12.745Z,101370
2023-03-18T13:27:24.700Z,101370
2023-03-18T13:29:13.662Z,101370
2023-03-18T13:31:10.009Z,101370
2023-03-18T13:33:16.635Z,101370
2023-03-18T13:35:22.529Z,101370
2023-03-18T13:37:12.791Z,101360
2023-03-18T13:39:18.700Z,101360
2023-03-18T13:41:13.260Z,101360
2023-03-18T13:43:01.559Z,101360
2023-03-18T13:45:09.239Z,101350
2023-03-18T13:47:02.353Z,101350
2023-03-18T13:49:01.311Z,101340
2023-03-18T13:50:59.608Z,101340
2023-03-18T13:52:59.885Z,101340
2023-03-18T13:55:03.537Z,101340
2023-03-18T13:57:17.567Z,101340
2023-03-18T13:59:03.557Z,101350
2023-03-18T14:01:15.755Z,101350
2023-03-18T14:03:12.630Z,101350
2023-03-18T14:04:58.471Z,101350
2023-03-18T14:07:13.318Z,101340
2023-03-18T14:08:58.012Z,101340
2023-03-18T14:11:26.990Z,101340
2023-03-18T14:13:25.011Z,101340
2023-03-18T14:15:02.603Z,101340
2023-03-18T14:16:57.723Z,101340
2023-03-18T14:19:01.010Z,101340
2023-03-18T14:21:00.956Z,101340
2023-03-18T14:23:27.089Z,101340
2023-03-18T14:25:17.854Z,101340
2023-03-18T14:27:15.842Z,101340
2023-03-18T14:29:28.938Z,101340
2023-03-18T14:31:12.693Z,101330
2023-03-18T14:32:59.282Z,101330
2023-03-18T14:34:58.704Z,101330
2023-03-18T14:37:18.003Z,101330
2023-03-18T14:39:02.201Z,101330
2023-03-18T14:41:00.447Z,101330
2023-03-18T14:42:59.098Z,101330
2023-03-18T14:45:04.440Z,101330
2023-03-18T14:47:02.995Z,101330
2023-03-18T14:48:56.998Z,101330
2023-03-18T14:50:59.425Z,101330
2023-03-18T14:53:03.769Z,101330
2023-03-18T14:55:00.538Z,101330
2023-03-18T14:56:56.974Z,101330
2023-03-18T14:58:56.770Z,101330
2023-03-18T15:01:04.329Z,101330
2023-03-18T15:03:02.958Z,101330
2023-03-18T15:04:59.683Z,101330
2023-03-18T15:07:02.504Z,101330
2023-03-18T15:09:00.478Z,101330
2023-03-18T15:10:56.770Z,101330
2023-03-18T15:13:00.261Z,101330
2023-03-18T15:14:56.149Z,101330
2023-03-18T15:17:00.021Z,101330
2023-03-18T15:18:56.101Z,101330
2023-03-18T15:21:01.924Z,101330
2023-03-18T15:22:55.991Z,101320
2023-03-18T15:25:00.268Z,101320
2023-03-18T15:26:57.870Z,101320
2023-03-18T15:28:58.339Z,101330
2023-03-18T15:30:57.748Z,101330
2023-03-18T15:33:04.114Z,101330
2023-03-18T15:34:57.206Z,101320
2023-03-18T15:36:57.236Z,101320
2023-03-18T15:38:55.372Z,101320
2023-03-18T15:41:00.000Z,101320
2023-03-18T15:42:57.259Z,101320
2023-03-18T15:44:59.984Z,101320
2023-03-18T15:47:02.392Z,101320
2023-03-18T15:48:56.071Z,101320
2023-03-18T15:50:57.310Z,101320
2023-03-18T15:53:05.587Z,101320
2023-03-18T15:54:54.665Z,101320
2023-03-18T15:56:56.198Z,101320
2023-03-18T15:59:02.273Z,101320
2023-03-18T16:00:56.101Z,101320
2023-03-18T16:02:54.334Z,101320
2023-03-18T16:05:04.771Z,101320
2023-03-18T16:06:54.105Z,101320
2023-03-18T16:08:54.065Z,101320
2023-03-18T16:10:56.643Z,101320
2023-03-18T16:13:00.925Z,101310
2023-03-18T16:14:54.104Z,101310
2023-03-18T16:16:53.880Z,101310
2023-03-18T16:18:53.613Z,101310
2023-03-18T16:20:53.813Z,101310
2023-03-18T16:22:53.497Z,101310
2023-03-18T16:24:53.255Z,101310
2023-03-18T16:26:54.294Z,101310
2023-03-18T16:28:53.079Z,101310
2023-03-18T16:30:52.929Z,101310
2023-03-18T16:32:54.668Z,101310
2023-03-18T16:34:52.820Z,101310
2023-03-18T16:36:53.324Z,101310
2023-03-18T16:38:52.688Z,101310
2023-03-18T16:40:54.711Z,101310
2023-03-18T16:42:52.771Z,101310
2023-03-18T16:44:52.532Z,101310
2023-03-18T16:46:54.655Z,101310
2023-03-18T16:48:52.070Z,101310
2023-03-18T16:50:52.439Z,101310
2023-03-18T16:52:52.160Z,101310
2023-03-18T16:54:51.826Z,101310
2023-03-18T16:56:54.414Z,101310
2023-03-18T16:58:51.678Z,101310
2023-03-18T17:00:51.898Z,101310
2023-03-18T17:02:52.084Z,101310
2023-03-18T17:04:51.205Z,101310
2023-03-18T17:06:51.216Z,101310
2023-03-18T17:08:51.031Z,101310
2023-03-18T17:10:55.905Z,101310
2023-03-18T17:12:54.062Z,101310
2023-03-18T17:14:53.283Z,101310
2023-03-18T17:16:50.676Z,101310
2023-03-18T17:18:50.503Z,101310
2023-03-18T17:20:51.336Z,101310
2023-03-18T17:22:50.660Z,101310
2023-03-18T17:24:50.269Z,101310
2023-03-18T17:26:50.802Z,101310
2023-03-18T17:28:50.067Z,101310
2023-03-18T17:30:50.355Z,101310
2023-03-18T17:32:50.945Z,101310
2023-03-18T17:34:51.228Z,101310
2023-03-18T17:36:49.539Z,101310
2023-03-18T17:38:49.454Z,101310
2023-03-18T17:40:49.950Z,101310
2023-03-18T17:42:51.724Z,101310
2023-03-18T17:44:49.009Z,101310
2023-03-18T17:46:49.015Z,101310
2023-03-18T17:48:48.727Z,101310
2023-03-18T17:50:50.985Z,101310
2023-03-18T17:52:51.090Z,101300
2023-03-18T17:54:48.536Z,101300
2023-03-18T17:56:48.189Z,101300
2023-03-18T17:58:49.695Z,101300
2023-03-18T18:00:48.619Z,101300
2023-03-18T18:02:48.366Z,101290
2023-03-18T18:04:47.681Z,101290
2023-03-18T18:06:49.277Z,101290
2023-03-18T18:08:48.079Z,101290
2023-03-18T18:10:48.672Z,101290
2023-03-18T18:12:49.527Z,101290
2023-03-18T18:14:47.556Z,101290
2023-03-18T18:16:48.139Z,101290
2023-03-18T18:18:49.487Z,101290
2023-03-18T18:20:50.824Z,101290
2023-03-18T18:22:50.509Z,101290
2023-03-18T18:24:47.484Z,101290
2023-03-18T18:26:46.467Z,101290
2023-03-18T18:28:48.692Z,101290
2023-03-18T18:30:46.188Z,101290
2023-03-18T18:32:46.261Z,101290
2023-03-18T18:34:45.914Z,101280
2023-03-18T18:36:45.867Z,101280
2023-03-18T18:38:45.706Z,101280
2023-03-18T18:40:45.635Z,101280
2023-03-18T18:42:45.342Z,101280
2023-03-18T18:44:45.250Z,101280
2023-03-18T18:46:45.521Z,101280
2023-03-18T18:48:47.727Z,101280
2023-03-18T18:50:45.272Z,101280
2023-03-18T18:52:45.212Z,101280
2023-03-18T18:54:44.615Z,101270
2023-03-18T18:56:44.604Z,101270
2023-03-18T18:58:44.809Z,101270
2023-03-18T19:00:45.848Z,101270
2023-03-18T19:02:44.062Z,101260
2023-03-18T19:04:43.887Z,101260
2023-03-18T19:06:44.835Z,101260
2023-03-18T19:08:43.733Z,101260
2023-03-18T19:10:43.456Z,101260
2023-03-18T19:12:43.801Z,101260
2023-03-18T19:14:43.285Z,101260
2023-03-18T19:16:43.568Z,101250
2023-03-18T19:18:43.110Z,101250
2023-03-18T19:20:42.849Z,101250
2023-03-18T19:22:42.661Z,101250
2023-03-18T19:24:43.650Z,101250
2023-03-18T19:26:42.330Z,101240
2023-03-18T19:28:57.058Z,101240
2023-03-18T19:30:41.988Z,101240
2023-03-18T19:32:41.932Z,101240
2023-03-18T19:34:41.674Z,101240
2023-03-18T19:36:41.768Z,101240
2023-03-18T19:38:41.592Z,101230
2023-03-18T19:40:41.664Z,101230
2023-03-18T19:42:40.982Z,101230
2023-03-18T19:44:40.931Z,101230
2023-03-18T19:46:40.952Z,101230
2023-03-18T19:48:40.556Z,101220
2023-03-18T19:50:40.342Z,101220
2023-03-18T19:52:40.234Z,101220
2023-03-18T19:54:40.088Z,101220
2023-03-18T19:56:39.901Z,101220
2023-03-18T19:58:39.682Z,101220
2023-03-18T20:00:39.563Z,101210
2023-03-18T20:02:39.356Z,101210
2023-03-18T20:04:39.116Z,101200
2023-03-18T20:06:38.898Z,101200
2023-03-18T20:08:38.876Z,101200
2023-03-18T20:10:39.510Z,101200
2023-03-18T20:12:41.270Z,101200
2023-03-18T20:14:38.390Z,101200
2023-03-18T20:16:38.227Z,101200
2023-03-18T20:18:37.983Z,101200
2023-03-18T20:20:37.795Z,101200
2023-03-18T20:22:41.269Z,101200
2023-03-18T20:24:37.453Z,101200
2023-03-18T20:26:37.294Z,101200
2023-03-18T20:28:37.329Z,101200
2023-03-18T20:30:38.895Z,101200
2023-03-18T20:32:36.869Z,101190
2023-03-18T20:34:37.493Z,101190
2023-03-18T20:36:36.855Z,101180
2023-03-18T20:38:38.754Z,101180
2023-03-18T20:40:37.515Z,101170
2023-03-18T20:42:35.997Z,101170
2023-03-18T20:44:35.840Z,101170
2023-03-18T20:46:35.751Z,101170
2023-03-18T20:48:35.587Z,101170
2023-03-18T20:50:35.753Z,101170
2023-03-18T20:52:35.133Z,101170
2023-03-18T20:54:35.060Z,101180
2023-03-18T20:56:34.812Z,101180
2023-03-18T20:58:34.694Z,101180
2023-03-18T21:00:34.554Z,101180
2023-03-18T21:02:35.581Z,101180
2023-03-18T21:04:34.173Z,101170
2023-03-18T21:06:34.032Z,101170
2023-03-18T21:08:33.806Z,101170
2023-03-18T21:10:34.871Z,101170
2023-03-18T21:12:34.866Z,101170
2023-03-18T21:14:33.458Z,101170
2023-03-18T21:16:34.634Z,101170
2023-03-18T21:18:33.125Z,101170
2023-03-18T21:20:33.530Z,101170
2023-03-18T21:22:32.917Z,101170
2023-03-18T21:24:32.414Z,101170
2023-03-18T21:26:32.443Z,101170
2023-03-18T21:28:32.146Z,101170
2023-03-18T21:30:31.972Z,101170
2023-03-18T21:32:31.849Z,101170
2023-03-18T21:34:31.607Z,101170
2023-03-18T21:36:31.426Z,101170
2023-03-18T21:38:32.079Z,101170
2023-03-18T21:40:31.270Z,101170
2023-03-18T21:42:30.908Z,101160
2023-03-18T21:44:30.598Z,101160
2023-03-18T21:46:30.615Z,101160
2023-03-18T21:48:30.308Z,101160
2023-03-18T21:50:30.314Z,101160
2023-03-18T21:52:31.856Z,101160
2023-03-18T21:54:29.658Z,101160
2023-03-18T21:56:29.536Z,101160
2023-03-18T21:58:29.263Z,101160
2023-03-18T22:00:29.235Z,101160
2023-03-18T22:02:30.770Z,101160
2023-03-18T22:04:28.711Z,101160
2023-03-18T22:06:28.566Z,101160
2023-03-18T22:08:28.348Z,101160
2023-03-18T22:10:28.161Z,101160
2023-03-18T22:12:29.711Z,101160
2023-03-18T22:14:27.916Z,101160
2023-03-18T22:16:27.665Z,101160
2023-03-18T22:18:27.391Z,101160
2023-03-18T22:20:27.843Z,101160
2023-03-18T22:22:30.437Z,101160
2023-03-18T22:24:26.787Z,101160
2023-03-18T22:26:26.735Z,101160
2023-03-18T22:28:26.311Z,101160
2023-03-18T22:30:27.608Z,101150
2023-03-18T22:32:36.850Z,101150
2023-03-18T22:34:26.073Z,101150
2023-03-18T22:36:25.661Z,101150
2023-03-18T22:38:25.790Z,101150
2023-03-18T22:40:27.696Z,101150
2023-03-18T22:42:26.875Z,101150
2023-03-18T22:44:24.870Z,101150
2023-03-18T22:46:24.751Z,101150
2023-03-18T22:48:25.181Z,101150
2023-03-18T22:50:26.325Z,101150
2023-03-18T22:52:27.621Z,101150
2023-03-18T22:54:23.932Z,101150
2023-03-18T22:56:23.787Z,101140
2023-03-18T22:58:26.988Z,101140
2023-03-18T23:00:30.187Z,101140
2023-03-18T23:02:25.497Z,101140
2023-03-18T23:04:23.006Z,101140
2023-03-18T23:06:22.911Z,101130
2023-03-18T23:08:23.579Z,101120
2023-03-18T23:10:22.401Z,101120
2023-03-18T23:12:23.516Z,101120
2023-03-18T23:14:21.954Z,101110
2023-03-18T23:16:22.906Z,101110
2023-03-18T23:18:21.634Z,101110
2023-03-18T23:20:21.424Z,101110
2023-03-18T23:22:25.065Z,101110
2023-03-18T23:24:21.042Z,101110
2023-03-18T23:26:20.780Z,101100
2023-03-18T23:28:20.635Z,101090
2023-03-18T23:30:20.382Z,101090
2023-03-18T23:32:22.109Z,101090
2023-03-18T23:34:19.899Z,101090
2023-03-18T23:36:19.732Z,101090
2023-03-18T23:38:19.388Z,101090
2023-03-18T23:40:19.747Z,101080
2023-03-18T23:42:19.909Z,101080
2023-03-18T23:44:18.839Z,101080
2023-03-18T23:46:19.098Z,101070
2023-03-18T23:48:18.365Z,101060
2023-03-18T23:50:18.360Z,101060
2023-03-18T23:52:17.926Z,101060
2023-03-18T23:54:17.745Z,101050
2023-03-18T23:56:17.600Z,101050
2023-03-18T23:58:17.791Z,101050
